Time;durP1;ratioP1;P1;durP2;ratioP2;P2;SDS_P1;SDS_P2;PMS_P1;PMS_P2;Temp;Humidity;BMP_temperature;BMP_pressure;BME280_temperature;BME280_humidity;BME280_pressure;Samples;Min_cycle;Max_cycle;Signal;HPM_P1;HPM_P2
2022/06/26 00:00:31;;;;;;;;;;;;;;;;;;5003148;28;19913;-79
2022/06/26 00:02:56;;;;;;;;;;;16.30;99.90;;;;;;4982204;28;19917;-80
2022/06/26 00:05:22;;;;;;;;;;;;;;;;;;4986084;28;19913;-79
2022/06/26 00:07:48;;;;;;;;;;;;;;;;;;4989877;28;20019;-79
2022/06/26 00:10:14;;;;;;;;;;;15.00;99.90;;;;;;4982858;28;19913;-79
2022/06/26 00:12:40;;;;;;;;;;;;;;;;;;4986288;28;19980;-80
2022/06/26 00:15:06;;;;;;;;;;;;;;;;;;4976165;28;19910;-79
2022/06/26 00:17:32;;;;;;;;;;;;;;;;;;4989584;28;19944;-79
2022/06/26 00:19:57;;;;;;;;;;;;;;;;;;4988652;28;19964;-79
2022/06/26 00:22:23;;;;;;;;;;;16.10;99.90;;;;;;4988462;28;19952;-79
2022/06/26 00:24:49;;;;;;;;;;;;;;;;;;4985747;28;19918;-80
2022/06/26 00:27:15;;;;;;;;;;;;;;;;;;4990207;28;19940;-79
2022/06/26 00:29:41;;;;;;;;;;;;;;;;;;4987582;28;20014;-78
2022/06/26 00:32:07;;;;;;;;;;;;;;;;;;4986198;28;20584;-78
2022/06/26 00:34:33;;;;;;;;;;;;;;;;;;4985145;28;19965;-79
2022/06/26 00:36:59;;;;;;;;;;;;;;;;;;4981524;28;20400;-80
2022/06/26 00:39:24;;;;;;;;;;;14.80;99.90;;;;;;4986346;28;19918;-80
2022/06/26 00:41:53;;;;;;;;;;;;;;;;;;4983539;28;19910;-78
2022/06/26 00:44:19;;;;;;;;;;;;;;;;;;4979194;28;20374;-80
2022/06/26 00:46:45;;;;;;;;;;;;;;;;;;4995441;28;19964;-79
2022/06/26 00:49:11;;;;;;;;;;;;;;;;;;4982794;28;20004;-80
2022/06/26 00:51:37;;;;;;;;;;;;;;;;;;4980529;28;19914;-78
2022/06/26 00:54:02;;;;;;;;;;;15.80;99.90;;;;;;4989131;28;19921;-80
2022/06/26 00:56:28;;;;;;;;;;;15.10;99.90;;;;;;4983637;28;19917;-80
2022/06/26 00:58:54;;;;;;;;;;;15.50;99.90;;;;;;4977619;28;19925;-79
2022/06/26 01:01:20;;;;;;;;;;;;;;;;;;4989376;28;20009;-79
2022/06/26 01:03:46;;;;;;;;;;;;;;;;;;4988846;28;20001;-78
2022/06/26 01:06:11;;;;;;;;;;;;;;;;;;4984303;28;19918;-79
2022/06/26 01:08:37;;;;;;;;;;;;;;;;;;4976175;28;20293;-80
2022/06/26 01:11:17;;;;;;;;;;;;;;;;;;4988820;28;19940;-80
2022/06/26 01:13:43;;;;;;;;;;;;;;;;;;4990711;28;19917;-79
2022/06/26 01:16:09;;;;;;;;;;;;;;;;;;4988680;28;19941;-79
2022/06/26 01:18:34;;;;;;;;;;;;;;;;;;4989214;28;20406;-79
2022/06/26 01:21:00;;;;;;;;;;;14.90;99.90;;;;;;4981988;28;20056;-80
2022/06/26 01:23:26;;;;;;;;;;;15.50;99.90;;;;;;4982239;28;19909;-80
2022/06/26 01:25:52;;;;;;;;;;;;;;;;;;4983967;28;19996;-79
2022/06/26 01:28:18;;;;;;;;;;;;;;;;;;4986133;28;20421;-81
2022/06/26 01:30:44;;;;;;;;;;;;;;;;;;4990415;28;20060;-79
2022/06/26 01:33:10;;;;;;;;;;;;;;;;;;4985952;28;19925;-79
2022/06/26 01:35:35;;;;;;;;;;;;;;;;;;4978023;28;20337;-79
2022/06/26 01:38:01;;;;;;;;;;;;;;;;;;4983772;28;19916;-79
2022/06/26 01:40:27;;;;;;;;;;;;;;;;;;4986633;28;19916;-81
2022/06/26 01:42:53;;;;;;;;;;;;;;;;;;4982844;28;19918;-79
2022/06/26 01:45:19;;;;;;;;;;;;;;;;;;4988557;28;20316;-80
2022/06/26 01:47:45;;;;;;;;;;;;;;;;;;4985518;28;19924;-79
2022/06/26 01:50:11;;;;;;;;;;;;;;;;;;4980622;28;19922;-79
2022/06/26 01:52:36;;;;;;;;;;;;;;;;;;4982327;28;20107;-80
2022/06/26 01:55:02;;;;;;;;;;;14.30;99.90;;;;;;4987068;28;19914;-81
2022/06/26 01:57:28;;;;;;;;;;;;;;;;;;4986510;28;21189;-80
2022/06/26 01:59:54;;;;;;;;;;;;;;;;;;4982652;28;20000;-80
2022/06/26 02:02:20;;;;;;;;;;;;;;;;;;4986003;28;19940;-80
2022/06/26 02:04:45;;;;;;;;;;;;;;;;;;4986274;28;20394;-79
2022/06/26 02:07:11;;;;;;;;;;;;;;;;;;4982801;28;19917;-80
2022/06/26 02:15:06;;;;;;;;;;;;;;;;;;4988225;28;20006;-80
2022/06/26 02:17:32;;;;;;;;;;;;;;;;;;4990246;28;19914;-79
2022/06/26 02:19:58;;;;;;;;;;;14.50;99.90;;;;;;4979029;28;19914;-79
2022/06/26 02:22:23;;;;;;;;;;;14.20;99.90;;;;;;4988176;28;19957;-80
2022/06/26 02:24:48;;;;;;;;;;;14.50;99.90;;;;;;4981761;28;20314;-80
2022/06/26 02:27:14;;;;;;;;;;;14.50;99.90;;;;;;4982611;28;19925;-79
2022/06/26 02:29:40;;;;;;;;;;;;;;;;;;4989757;28;19928;-79
2022/06/26 02:32:06;;;;;;;;;;;;;;;;;;4998307;28;19917;-79
2022/06/26 02:34:31;;;;;;;;;;;14.40;99.90;;;;;;4982783;28;20488;-79
2022/06/26 02:36:56;;;;;;;;;;;14.40;99.90;;;;;;4996201;28;19915;-79
2022/06/26 02:39:22;;;;;;;;;;;;;;;;;;4981951;28;19938;-79
2022/06/26 02:41:48;;;;;;;;;;;14.30;99.90;;;;;;4992622;28;20389;-80
2022/06/26 02:44:15;;;;;;;;;;;;;;;;;;4986323;28;19987;-78
2022/06/26 02:46:41;;;;;;;;;;;14.60;99.90;;;;;;4993442;28;20012;-79
2022/06/26 02:49:07;;;;;;;2.25;1.25;;;;;;;;;;4987896;28;20024;-80
2022/06/26 02:51:33;;;;;;;1.27;0.77;;;;;;;;;;4986258;28;20022;-78
2022/06/26 02:53:59;;;;;;;1.63;0.85;;;;;;;;;;4987414;28;20026;-77
2022/06/26 02:56:25;;;;;;;2.50;1.35;;;;;;;;;;4988771;28;20053;-79
2022/06/26 02:58:50;;;;;;;1.20;0.80;;;;;;;;;;4982719;28;20018;-79
2022/06/26 03:01:16;;;;;;;4.95;1.00;;;;;;;;;;4985273;28;20727;-79
2022/06/26 03:03:42;;;;;;;1.58;0.70;;;;;;;;;;4985453;28;20704;-79
2022/06/26 03:06:08;;;;;;;2.50;0.70;;;;;;;;;;4986878;28;20068;-78
2022/06/26 03:08:34;;;;;;;1.08;0.75;;;;;;;;;;4987884;28;20042;-79
2022/06/26 03:11:00;;;;;;;1.98;1.00;;;;;;;;;;4987682;28;20026;-78
2022/06/26 03:13:26;;;;;;;1.60;1.13;;;;;;;;;;4988449;28;20045;-79
2022/06/26 03:15:52;;;;;;;4.85;1.30;;;;;;;;;;4986123;28;20033;-78
2022/06/26 03:18:18;;;;;;;2.75;1.00;;;;;;;;;;4988847;28;20033;-78
2022/06/26 03:20:44;;;;;;;1.85;0.80;;;;;;;;;;4981777;28;20030;-79
2022/06/26 03:23:10;;;;;;;1.35;0.85;;;;;;;;;;4983219;28;20042;-79
2022/06/26 03:25:36;;;;;;;2.30;1.05;;;;;;;;;;4983481;28;20022;-79
2022/06/26 03:28:02;;;;;;;1.90;1.23;;;14.60;99.90;;;;;;4982541;28;20528;-78
2022/06/26 03:30:28;;;;;;;1.55;0.80;;;14.30;99.90;;;;;;4990389;28;20038;-79
2022/06/26 03:32:54;;;;;;;1.70;0.90;;;;;;;;;;4984543;28;20050;-79
2022/06/26 03:35:19;;;;;;;2.05;1.05;;;;;;;;;;4986785;28;20030;-80
2022/06/26 03:37:46;;;;;;;3.65;1.00;;;;;;;;;;4986687;28;20428;-78
2022/06/26 03:40:12;;;;;;;2.15;0.93;;;14.50;99.90;;;;;;4991652;28;20691;-79
2022/06/26 03:42:38;;;;;;;2.85;0.80;;;;;;;;;;4991609;28;20627;-79
2022/06/26 03:45:04;;;;;;;4.82;0.82;;;;;;;;;;4985699;28;20042;-78
2022/06/26 03:47:30;;;;;;;;;;;14.90;99.90;;;;;;4991992;28;20032;-78
2022/06/26 03:49:55;;;;;;;1.52;0.82;;;;;;;;;;4990170;28;19922;-78
2022/06/26 03:52:22;;;;;;;6.03;1.38;;;14.70;99.90;;;;;;4985557;28;20097;-79
2022/06/26 03:54:48;;;;;;;1.38;0.98;;;14.70;99.90;;;;;;4986560;28;20045;-79
2022/06/26 03:57:15;;;;;;;2.05;1.15;;;;;;;;;;4987571;28;20027;-78
2022/06/26 03:59:41;;;;;;;0.90;0.68;;;15.60;99.90;;;;;;4977844;28;20125;-79
2022/06/26 04:02:07;;;;;;;2.60;0.80;;;;;;;;;;4988359;28;20109;-78
2022/06/26 04:04:33;;;;;;;1.35;0.70;;;;;;;;;;4982805;28;20099;-79
2022/06/26 04:06:59;;;;;;;5.90;1.00;;;;;;;;;;4983439;28;20032;-78
2022/06/26 04:09:25;;;;;;;1.60;0.93;;;;;;;;;;4981779;28;20165;-79
2022/06/26 04:11:50;;;;;;;3.70;1.30;;;;;;;;;;4986670;28;20113;-79
2022/06/26 04:14:16;;;;;;;1.65;0.90;;;;;;;;;;4988986;28;20045;-78
2022/06/26 04:16:42;;;;;;;3.83;1.00;;;;;;;;;;4987617;28;20021;-79
2022/06/26 04:19:08;;;;;;;1.35;0.63;;;;;;;;;;4981846;28;20586;-79
2022/06/26 04:21:34;;;;;;;2.85;1.05;;;;;;;;;;4983914;28;20410;-78
2022/06/26 04:24:00;;;;;;;1.83;0.90;;;;;;;;;;4986725;28;20030;-77
2022/06/26 04:26:26;;;;;;;1.10;0.75;;;;;;;;;;4984060;28;20037;-78
2022/06/26 04:28:52;;;;;;;1.92;1.25;;;;;;;;;;4975323;28;20446;-79
2022/06/26 04:31:18;;;;;;;0.80;0.57;;;15.50;99.90;;;;;;4978892;28;20030;-79
2022/06/26 04:33:44;;;;;;;1.83;0.88;;;;;;;;;;4982970;28;20029;-79
2022/06/26 04:36:12;;;;;;;1.45;0.88;;;;;;;;;;4986301;28;20089;-79
2022/06/26 04:38:38;;;;;;;1.23;0.70;;;;;;;;;;4982909;28;20096;-78
2022/06/26 04:41:31;;;;;;;1.52;0.80;;;;;;;;;;4987407;28;20036;-79
2022/06/26 04:43:50;;;;;;;2.17;1.05;;;;;;;;;;4980729;28;20498;-79
2022/06/26 04:46:16;;;;;;;2.40;1.00;;;;;;;;;;4984933;28;20035;-78
2022/06/26 04:48:42;;;;;;;2.92;0.90;;;;;;;;;;4979780;28;20030;-79
2022/06/26 04:51:08;;;;;;;1.80;0.75;;;;;;;;;;4979349;28;20046;-79
2022/06/26 04:53:34;;;;;;;1.98;0.80;;;;;;;;;;4989567;28;20056;-78
2022/06/26 04:56:00;;;;;;;1.38;0.80;;;;;;;;;;4980340;28;20058;-79
2022/06/26 04:58:26;;;;;;;6.75;0.73;;;;;;;;;;4976631;28;20066;-79
2022/06/26 05:00:52;;;;;;;1.25;0.80;;;;;;;;;;4985662;28;20093;-80
2022/06/26 05:03:17;;;;;;;1.88;0.93;;;;;;;;;;4984950;28;20096;-79
2022/06/26 05:05:43;;;;;;;1.15;0.52;;;;;;;;;;4987929;28;20022;-79
2022/06/26 05:08:09;;;;;;;1.17;0.70;;;;;;;;;;4988867;28;20098;-78
2022/06/26 05:10:35;;;;;;;1.38;0.80;;;;;;;;;;5003718;28;20026;-79
2022/06/26 05:13:01;;;;;;;1.33;0.90;;;;;;;;;;5004677;28;20032;-78
2022/06/26 05:15:27;;;;;;;0.95;0.70;;;;;;;;;;4994505;28;20026;-78
2022/06/26 05:17:53;;;;;;;1.17;0.85;;;;;;;;;;4983950;28;20096;-80
2022/06/26 05:20:19;;;;;;;4.82;0.60;;;;;;;;;;4981109;28;20024;-80
2022/06/26 05:22:45;;;;;;;;;;;16.90;99.90;;;;;;4979720;28;20030;-78
2022/06/26 05:25:10;;;;;;;;;;;17.00;99.90;;;;;;4980536;28;20295;-78
2022/06/26 05:27:36;;;;;;;1.52;0.75;;;;;;;;;;4980499;28;19909;-79
2022/06/26 05:30:04;;;;;;;0.70;0.70;;;17.10;99.90;;;;;;4978801;28;20047;-79
2022/06/26 05:32:30;;;;;;;1.35;0.77;;;;;;;;;;4975340;28;20022;-79
2022/06/26 05:34:56;;;;;;;2.30;1.05;;;;;;;;;;4981621;28;20039;-78
2022/06/26 05:37:21;;;;;;;3.80;1.10;;;17.20;99.90;;;;;;4988042;28;20027;-80
2022/06/26 05:39:47;;;;;;;1.08;0.60;;;;;;;;;;4989714;28;20069;-80
2022/06/26 05:42:13;;;;;;;2.05;0.70;;;;;;;;;;4985309;28;20030;-78
2022/06/26 05:44:39;;;;;;;1.65;0.80;;;18.30;99.90;;;;;;4984451;28;20874;-79
2022/06/26 05:47:05;;;;;;;1.42;0.80;;;;;;;;;;4995767;28;20098;-78
2022/06/26 05:49:30;;;;;;;1.38;0.70;;;17.60;99.90;;;;;;4989050;28;20038;-78
2022/06/26 05:51:56;;;;;;;2.00;0.88;;;18.50;99.90;;;;;;4982562;28;20082;-78
2022/06/26 05:54:22;;;;;;;2.00;0.55;;;;;;;;;;4982216;28;20085;-79
2022/06/26 05:56:48;;;;;;;1.40;0.80;;;;;;;;;;4974773;28;20041;-79
2022/06/26 05:59:14;;;;;;;1.45;1.10;;;;;;;;;;4982301;28;20039;-79
2022/06/26 06:01:40;;;;;;;1.23;0.70;;;;;;;;;;4982393;28;20109;-80
2022/06/26 06:04:06;;;;;;;1.38;0.80;;;;;;;;;;4981045;28;20035;-80
2022/06/26 06:06:32;;;;;;;1.55;0.88;;;;;;;;;;4983305;28;20056;-80
2022/06/26 06:08:58;;;;;;;2.25;0.63;;;19.70;99.90;;;;;;4991155;28;20136;-80
2022/06/26 06:11:23;;;;;;;;;;;20.50;99.90;;;;;;4993293;28;20061;-79
2022/06/26 06:13:49;;;;;;;1.13;0.60;;;;;;;;;;4989055;28;19922;-80
2022/06/26 06:16:15;;;;;;;;;;;22.20;99.90;;;;;;4986177;28;20122;-80
2022/06/26 06:18:40;;;;;;;;;;;24.10;99.90;;;;;;4992166;28;19910;-79
2022/06/26 06:21:06;;;;;;;;;;;23.30;99.90;;;;;;4985938;28;20366;-80
2022/06/26 06:23:31;;;;;;;0.52;0.22;;;24.30;99.90;;;;;;4985990;28;19953;-79
2022/06/26 06:25:57;;;;;;;;;;;24.40;99.90;;;;;;4986789;28;20104;-79
2022/06/26 06:28:22;;;;;;;0.52;0.40;;;;;;;;;;4986665;28;19940;-80
2022/06/26 06:30:48;;;;;;;0.90;0.30;;;26.90;99.90;;;;;;4986170;28;20061;-79
2022/06/26 06:33:14;;;;;;;0.22;0.20;;;;;;;;;;4986794;28;20030;-80
2022/06/26 06:35:40;;;;;;;0.63;0.20;;;;;;;;;;4981013;28;20030;-79
2022/06/26 06:38:06;;;;;;;0.32;0.17;;;32.50;85.00;;;;;;4980647;28;20030;-80
2022/06/26 06:40:32;;;;;;;;;;;34.80;68.40;;;;;;4985769;28;20052;-80
2022/06/26 06:42:57;;;;;;;;;;;35.60;56.80;;;;;;4983667;28;19910;-79
2022/06/26 06:45:23;;;;;;;2.33;0.30;;;;;;;;;;4978953;28;20028;-82
2022/06/26 06:47:49;;;;;;;0.63;0.30;;;39.30;60.90;;;;;;4986937;28;20097;-81
2022/06/26 06:50:15;;;;;;;1.35;0.28;;;40.10;52.50;;;;;;4982786;28;20086;-81
2022/06/26 06:52:41;;;;;;;3.67;0.32;;;;;;;;;;4982266;28;20514;-79
2022/06/26 06:55:07;;;;;;;1.65;0.22;;;41.90;52.10;;;;;;4988021;28;20030;-82
2022/06/26 06:57:32;;;;;;;0.73;0.30;;;42.50;50.90;;;;;;4991864;28;20042;-82
2022/06/26 06:59:58;;;;;;;0.88;0.20;;;;;;;;;;4986043;28;20050;-80
2022/06/26 07:02:24;;;;;;;2.30;0.50;;;;;;;;;;4982239;28;20116;-79
2022/06/26 07:04:50;;;;;;;0.82;0.20;;;;;;;;;;4977414;28;20046;-80
2022/06/26 07:07:16;;;;;;;0.73;0.28;;;;;;;;;;4970682;28;20129;-81
2022/06/26 07:09:42;;;;;;;0.93;0.30;;;;;;;;;;4976730;28;20042;-81
2022/06/26 07:12:08;;;;;;;0.40;0.20;;;;;;;;;;4981570;28;20018;-79
2022/06/26 07:14:34;;;;;;;1.00;0.40;;;;;;;;;;4983855;28;20140;-80
2022/06/26 07:17:00;;;;;;;0.45;0.28;;;;;;;;;;4973376;28;20435;-81
2022/06/26 07:19:26;;;;;;;0.73;0.35;;;;;;;;;;4983072;28;20073;-80
2022/06/26 07:21:53;;;;;;;0.28;0.28;;;;;;;;;;4990069;28;20018;-82
2022/06/26 07:24:19;;;;;;;0.35;0.30;;;;;;;;;;4986447;28;20042;-81
2022/06/26 07:26:44;;;;;;;0.80;0.30;;;41.40;38.80;;;;;;4988850;28;20034;-81
2022/06/26 07:29:10;;;;;;;;;;;41.20;36.60;;;;;;4983011;28;20049;-82
2022/06/26 07:31:35;;;;;;;;;;;39.50;38.90;;;;;;4993045;28;19910;-80
2022/06/26 07:34:13;;;;;;;;;;;37.70;42.90;;;;;;4990608;28;19932;-81
2022/06/26 07:36:42;;;;;;;;;;;36.80;42.80;;;;;;4993258;28;19916;-80
2022/06/26 07:39:09;;;;;;;;;;;36.00;44.30;;;;;;4989312;28;19914;-79
2022/06/26 07:41:34;;;;;;;;;;;35.50;44.20;;;;;;4993256;28;20052;-80
2022/06/26 07:44:00;;;;;;;;;;;35.40;46.80;;;;;;4985402;28;19938;-81
2022/06/26 07:46:25;;;;;;;;;;;34.60;46.20;;;;;;4984555;28;19914;-79
2022/06/26 07:48:51;;;;;;;;;;;34.70;48.40;;;;;;4984276;28;20410;-81
2022/06/26 07:51:16;;;;;;;;;;;34.00;48.80;;;;;;4989252;28;19966;-80
2022/06/26 07:53:42;;;;;;;;;;;34.80;46.50;;;;;;4983709;28;19910;-82
2022/06/26 07:56:07;;;;;;;;;;;35.20;45.20;;;;;;4995029;28;20273;-77
2022/06/26 07:58:33;;;;;;;;;;;35.20;44.80;;;;;;4991477;28;19984;-81
2022/06/26 08:00:58;;;;;;;;;;;34.50;45.80;;;;;;4982855;28;19932;-80
2022/06/26 08:03:24;;;;;;;;;;;33.50;46.60;;;;;;4992199;28;19917;-80
2022/06/26 08:05:49;;;;;;;;;;;35.60;47.80;;;;;;4988541;28;20278;-80
2022/06/26 08:08:15;;;;;;;;;;;35.40;45.20;;;;;;4987778;28;19921;-80
2022/06/26 08:10:41;;;;;;;;;;;35.40;44.30;;;;;;4990152;28;20292;-81
2022/06/26 08:13:07;;;;;;;;;;;35.80;43.60;;;;;;4985016;28;19909;-81
2022/06/26 08:15:32;;;;;;;;;;;36.70;44.70;;;;;;4985119;28;19988;-80
2022/06/26 08:17:58;;;;;;;;;;;35.30;46.10;;;;;;4983096;28;19953;-81
2022/06/26 08:20:24;;;;;;;;;;;36.10;47.20;;;;;;4986786;28;19924;-80
2022/06/26 08:22:49;;;;;;;;;;;34.40;45.60;;;;;;4986289;28;19988;-79
2022/06/26 08:25:15;;;;;;;;;;;34.30;46.40;;;;;;4991404;28;19910;-80
2022/06/26 08:27:41;;;;;;;;;;;34.90;47.80;;;;;;4988290;28;19964;-80
2022/06/26 08:30:06;;;;;;;;;;;34.40;48.30;;;;;;4983587;28;19917;-82
2022/06/26 08:32:32;;;;;;;;;;;34.50;47.70;;;;;;4989363;28;19929;-80
2022/06/26 08:34:58;;;;;;;;;;;33.40;50.10;;;;;;4983225;28;19918;-80
2022/06/26 08:37:24;;;;;;;;;;;33.10;51.40;;;;;;4987529;28;19913;-80
2022/06/26 08:39:49;;;;;;;;;;;33.20;50.70;;;;;;4983079;28;20347;-80
2022/06/26 08:42:15;;;;;;;;;;;33.80;48.70;;;;;;4983230;28;19909;-78
2022/06/26 08:44:44;;;;;;;;;;;34.70;47.90;;;;;;4985401;28;19936;-79
2022/06/26 08:47:10;;;;;;;;;;;35.90;45.60;;;;;;4985876;28;19918;-80
2022/06/26 08:49:36;;;;;;;;;;;36.80;43.00;;;;;;4986132;28;19922;-79
2022/06/26 08:52:02;;;;;;;;;;;38.80;42.10;;;;;;4982389;28;20040;-80
2022/06/26 08:54:28;;;;;;;;;;;40.00;39.70;;;;;;4988391;28;19949;-80
2022/06/26 08:56:54;;;;;;;;;;;39.90;39.40;;;;;;4983696;28;19914;-79
2022/06/26 08:59:20;;;;;;;;;;;41.10;38.00;;;;;;4981139;28;19917;-80
2022/06/26 09:01:45;;;;;;;;;;;41.60;36.30;;;;;;4985797;28;19918;-80
2022/06/26 09:04:12;;;;;;;;;;;41.30;36.20;;;;;;4987734;28;20397;-80
2022/06/26 09:06:38;;;;;;;;;;;39.70;37.20;;;;;;4982791;28;20352;-81
2022/06/26 09:09:17;;;;;;;;;;;39.90;38.60;;;;;;4984319;28;20000;-81
2022/06/26 09:11:43;;;;;;;;;;;39.60;37.30;;;;;;4990398;28;19917;-79
2022/06/26 09:14:10;;;;;;;;;;;39.50;39.10;;;;;;4987216;28;19910;-80
2022/06/26 09:16:38;;;;;;;;;;;40.50;36.70;;;;;;4994515;28;19913;-79
2022/06/26 09:19:08;;;;;;;;;;;40.70;35.90;;;;;;4992878;28;20000;-79
2022/06/26 09:21:34;;;;;;;;;;;41.00;35.00;;;;;;4992019;28;20365;-82
2022/06/26 09:23:59;;;;;;;;;;;41.20;35.90;;;;;;4986899;28;19925;-80
2022/06/26 09:26:25;;;;;;;;;;;41.00;37.00;;;;;;4995992;28;19918;-80
2022/06/26 09:28:50;;;;;;;;;;;41.20;38.10;;;;;;4990187;28;19967;-81
2022/06/26 09:31:22;;;;;;;;;;;40.00;38.30;;;;;;4985243;28;20396;-80
2022/06/26 09:33:48;;;;;;;;;;;38.40;40.70;;;;;;4988045;28;19918;-81
2022/06/26 09:36:15;;;;;;;;;;;37.10;42.70;;;;;;4990292;28;20270;-81
2022/06/26 09:38:47;;;;;;;;;;;34.60;44.40;;;;;;4992069;28;19914;-79
2022/06/26 09:41:13;;;;;;;;;;;33.30;48.70;;;;;;4984099;28;19932;-80
2022/06/26 09:43:40;;;;;;;;;;;32.70;50.00;;;;;;4989628;28;20354;-80
2022/06/26 09:46:11;;;;;;;;;;;32.20;52.60;;;;;;4991140;28;19960;-80
2022/06/26 09:48:37;;;;;;;;;;;32.10;52.70;;;;;;5003566;28;20391;-81
2022/06/26 09:51:03;;;;;;;;;;;31.50;51.80;;;;;;4981865;28;19913;-81
2022/06/26 09:53:30;;;;;;;;;;;31.00;54.70;;;;;;4989875;28;20001;-78
2022/06/26 09:55:57;;;;;;;;;;;30.50;53.90;;;;;;4996235;28;19921;-80
2022/06/26 09:58:23;;;;;;;;;;;29.80;53.80;;;;;;4991328;28;19925;-79
2022/06/26 10:06:25;;;;;;;;;;;29.60;56.70;;;;;;5019991;28;19981;-77
2022/06/26 10:08:51;;;;;;;;;;;29.30;55.40;;;;;;5021242;28;19913;-78
2022/06/26 10:11:17;;;;;;;;;;;30.30;58.60;;;;;;5001093;28;20271;-80
2022/06/26 10:13:43;;;;;;;;;;;;;;;;;;4986386;28;19915;-80
2022/06/26 10:16:27;;;;;;;;;;;30.20;57.80;;;;;;4984528;28;19914;-78
2022/06/26 10:18:53;;;;;;;;;;;29.40;56.60;;;;;;4993228;28;19957;-81
2022/06/26 10:21:19;;;;;;;;;;;;;;;;;;4984507;28;20636;-80
2022/06/26 10:23:44;;;;;;;;;;;30.10;57.60;;;;;;4992704;28;19917;-80
2022/06/26 10:26:11;;;;;;;;;;;29.20;56.80;;;;;;4991645;28;19965;-80
2022/06/26 10:28:37;;;;;;;;;;;30.40;56.00;;;;;;4991143;28;19917;-80
2022/06/26 10:31:06;;;;;;;;;;;29.40;57.00;;;;;;4985338;28;19910;-80
2022/06/26 10:33:31;;;;;;;;;;;29.10;57.40;;;;;;4990253;28;19913;-78
2022/06/26 10:35:57;;;;;;;;;;;30.20;58.50;;;;;;4986242;28;19913;-80
2022/06/26 10:38:27;;;;;;;;;;;29.30;56.20;;;;;;4993175;28;19944;-81
2022/06/26 10:44:01;;;;;;;;;;;29.60;58.50;;;;;;4989573;28;19955;-80
2022/06/26 10:46:33;;;;;;;;;;;29.50;57.90;;;;;;4991996;28;19932;-79
2022/06/26 10:48:59;;;;;;;;;;;29.80;58.70;;;;;;4987536;28;20410;-79
2022/06/26 10:51:29;;;;;;;;;;;29.80;59.00;;;;;;4989379;28;19917;-78
2022/06/26 10:53:55;;;;;;;;;;;30.00;56.20;;;;;;4998292;28;19925;-78
2022/06/26 10:56:20;;;;;;;;;;;29.30;56.60;;;;;;4987814;28;19918;-79
2022/06/26 10:58:48;;;;;;;;;;;29.90;57.00;;;;;;4989476;28;19909;-81
2022/06/26 11:01:14;;;;;;;;;;;28.70;56.50;;;;;;4983571;28;19921;-81
2022/06/26 11:03:40;;;;;;;;;;;30.00;57.60;;;;;;4987776;28;19925;-80
2022/06/26 11:06:06;;;;;;;;;;;30.00;56.20;;;;;;4988143;28;20381;-78
2022/06/26 11:08:35;;;;;;;;;;;30.00;55.90;;;;;;4993741;28;20414;-82
2022/06/26 11:11:01;;;;;;;;;;;29.10;54.80;;;;;;4981308;28;19921;-81
2022/06/26 11:13:27;;;;;;;;;;;28.90;55.40;;;;;;4988104;28;20086;-80
2022/06/26 11:15:52;;;;;;;;;;;29.00;57.70;;;;;;4979475;28;19918;-83
2022/06/26 11:18:18;;;;;;;;;;;29.10;56.40;;;;;;4989803;28;20038;-81
2022/06/26 11:20:47;;;;;;;;;;;30.10;57.30;;;;;;4986146;28;19910;-81
2022/06/26 11:23:18;;;;;;;;;;;29.10;56.00;;;;;;4992344;28;19910;-81
2022/06/26 11:25:45;;;;;;;;;;;30.20;57.30;;;;;;4984778;28;19909;-81
2022/06/26 11:28:10;;;;;;;;;;;30.10;58.10;;;;;;4989978;28;20333;-82
2022/06/26 11:30:36;;;;;;;;;;;28.80;56.50;;;;;;4986775;28;19916;-79
2022/06/26 11:33:02;;;;;;;;;;;29.70;55.50;;;;;;4985247;28;19921;-79
2022/06/26 11:35:27;;;;;;;;;;;28.80;56.10;;;;;;4989472;28;19913;-82
2022/06/26 11:37:53;;;;;;;;;;;28.60;56.50;;;;;;4985496;28;19976;-81
2022/06/26 11:40:19;;;;;;;;;;;29.40;56.30;;;;;;4995169;28;19921;-83
2022/06/26 11:42:44;;;;;;;;;;;29.00;59.30;;;;;;4991602;28;19973;-81
2022/06/26 11:45:19;;;;;;;;;;;29.30;58.00;;;;;;4988667;28;19968;-79
2022/06/26 11:47:44;;;;;;;;;;;29.90;57.60;;;;;;4983241;28;19918;-83
2022/06/26 11:50:17;;;;;;;;;;;29.40;58.60;;;;;;4988883;28;20008;-82
2022/06/26 11:52:42;;;;;;;;;;;28.60;55.60;;;;;;4983057;28;19918;-81
2022/06/26 11:55:08;;;;;;;;;;;28.70;55.80;;;;;;4992985;28;19917;-80
2022/06/26 11:57:33;;;;;;;;;;;28.60;54.50;;;;;;4973500;28;19928;-80
2022/06/26 12:00:03;;;;;;;;;;;29.70;55.40;;;;;;4975966;28;19918;-80
2022/06/26 12:02:28;;;;;;;;;;;29.00;54.40;;;;;;4981006;28;19937;-79
2022/06/26 12:04:54;;;;;;;;;;;29.90;55.10;;;;;;4987296;28;20016;-80
2022/06/26 12:07:20;;;;;;;;;;;29.90;55.30;;;;;;4985493;28;19928;-81
2022/06/26 12:09:45;;;;;;;;;;;29.70;55.90;;;;;;4993480;28;19953;-80
2022/06/26 12:12:12;;;;;;;;;;;29.90;56.40;;;;;;4987043;28;20077;-80
2022/06/26 12:14:43;;;;;;;;;;;29.60;54.60;;;;;;4977412;28;19914;-80
2022/06/26 12:17:08;;;;;;;;;;;30.30;55.00;;;;;;4983951;28;19913;-80
2022/06/26 12:19:40;;;;;;;;;;;29.20;53.70;;;;;;4982355;28;19940;-81
2022/06/26 12:22:05;;;;;;;;;;;29.20;54.30;;;;;;4981389;28;20729;-81
2022/06/26 12:24:31;;;;;;;;;;;29.40;54.10;;;;;;4992529;28;20029;-79
2022/06/26 12:26:57;;;;;;;;;;;29.60;51.90;;;;;;4991030;28;20291;-80
2022/06/26 12:29:22;;;;;;;;;;;30.10;50.70;;;;;;4986245;28;20029;-82
2022/06/26 12:31:48;;;;;;;;;;;29.90;50.40;;;;;;4979230;28;19949;-79
2022/06/26 12:34:13;;;;;;;;;;;29.90;52.30;;;;;;4983957;28;19918;-80
2022/06/26 12:36:39;;;;;;;;;;;;;;;;;;4988402;28;19918;-81
2022/06/26 12:39:06;;;;;;;;;;;30.40;52.80;;;;;;4984860;28;19952;-80
2022/06/26 12:41:32;;;;;;;;;;;29.80;51.80;;;;;;4988663;28;19917;-80
2022/06/26 12:44:01;;;;;;;;;;;30.10;50.80;;;;;;4988058;28;20341;-80
2022/06/26 12:46:27;;;;;;;;;;;29.70;50.40;;;;;;4980015;28;19945;-79
2022/06/26 12:48:53;;;;;;;;;;;29.80;51.70;;;;;;4984477;28;19960;-79
2022/06/26 12:51:21;;;;;;;;;;;30.60;51.80;;;;;;4984541;28;19909;-79
2022/06/26 12:53:47;;;;;;;;;;;31.20;53.50;;;;;;4983416;28;20255;-80
2022/06/26 12:56:13;;;;;;;1.10;0.20;;;;;;;;;;4984103;28;20366;-80
2022/06/26 12:58:40;;;;;;;0.60;0.30;;;;;;;;;;4990077;28;20068;-81
2022/06/26 13:01:06;;;;;;;0.40;0.30;;;30.50;50.30;;;;;;4984375;28;20038;-79
2022/06/26 13:03:32;;;;;;;0.63;0.30;;;;;;;;;;4985164;28;20030;-80
2022/06/26 13:05:58;;;;;;;0.73;0.20;;;;;;;;;;4976985;28;20035;-81
2022/06/26 13:08:24;;;;;;;0.22;0.20;;;;;;;;;;4979217;28;20031;-79
2022/06/26 13:10:50;;;;;;;;;;;31.70;49.20;;;;;;4980554;28;20517;-79
2022/06/26 13:13:15;;;;;;;;;;;31.90;47.90;;;;;;4982085;28;19917;-79
2022/06/26 13:15:41;;;;;;;;;;;31.90;48.80;;;;;;4978192;28;19977;-79
2022/06/26 13:18:06;;;;;;;;;;;32.10;48.10;;;;;;4985852;28;19914;-81
2022/06/26 13:20:32;;;;;;;;;;;31.90;47.40;;;;;;4982321;28;19914;-78
2022/06/26 13:22:58;;;;;;;;;;;31.80;47.70;;;;;;4977115;28;19969;-79
2022/06/26 13:25:24;;;;;;;;;;;33.10;49.40;;;;;;4982441;28;19909;-79
2022/06/26 13:27:49;;;;;;;;;;;32.40;47.90;;;;;;4979575;28;19951;-78
2022/06/26 13:30:15;;;;;;;;;;;32.40;47.30;;;;;;4978244;28;19922;-77
2022/06/26 13:32:40;;;;;;;;;;;37.60;49.80;;;;;;4985609;28;19910;-77
2022/06/26 13:35:06;;;;;;;;;;;32.30;46.90;;;;;;4980736;28;20462;-78
2022/06/26 13:37:32;;;;;;;;;;;32.20;47.50;;;;;;4983987;28;20111;-78
2022/06/26 13:39:57;;;;;;;;;;;32.40;46.40;;;;;;4974916;28;20012;-77
2022/06/26 13:42:23;;;;;;;;;;;32.40;46.60;;;;;;4985633;28;20358;-79
2022/06/26 13:44:49;;;;;;;;;;;32.30;45.60;;;;;;4982822;28;19925;-78
2022/06/26 13:47:14;;;;;;;;;;;32.10;46.50;;;;;;4980079;28;19922;-79
2022/06/26 13:49:45;;;;;;;;;;;32.40;45.90;;;;;;4977842;28;20293;-81
2022/06/26 13:52:11;;;;;;;;;;;32.20;45.60;;;;;;4984158;28;19910;-79
2022/06/26 13:54:36;;;;;;;;;;;32.30;47.60;;;;;;4981347;28;19917;-80
2022/06/26 13:57:02;;;;;;;;;;;31.20;47.20;;;;;;4986416;28;19921;-78
2022/06/26 13:59:27;;;;;;;;;;;32.20;45.90;;;;;;4983824;28;19916;-78
2022/06/26 14:01:53;;;;;;;;;;;32.40;48.00;;;;;;4986288;28;19914;-80
2022/06/26 14:04:20;;;;;;;;;;;32.50;46.70;;;;;;4977248;28;20397;-78
2022/06/26 14:06:45;;;;;;;;;;;32.50;45.70;;;;;;4974006;28;19918;-81
2022/06/26 14:09:11;;;;;;;;;;;32.50;47.00;;;;;;4987182;28;20416;-79
2022/06/26 14:11:36;;;;;;;;;;;32.40;46.70;;;;;;4979241;28;19918;-78
2022/06/26 14:14:02;;;;;;;;;;;32.50;46.10;;;;;;4985904;28;19910;-79
2022/06/26 14:16:28;;;;;;;;;;;32.70;45.10;;;;;;4980239;28;19913;-78
2022/06/26 14:18:53;;;;;;;;;;;32.80;46.00;;;;;;4979779;28;20388;-77
2022/06/26 14:21:19;;;;;;;;;;;32.60;45.20;;;;;;4979957;28;19910;-77
2022/06/26 14:26:28;;;;;;;;;;;32.50;45.30;;;;;;4985776;28;19916;-77
2022/06/26 14:28:54;;;;;;;;;;;32.60;46.00;;;;;;4981805;28;20391;-78
2022/06/26 14:31:19;;;;;;;;;;;33.40;45.90;;;;;;4981393;28;19913;-79
2022/06/26 14:33:45;;;;;;;;;;;32.30;45.00;;;;;;4989974;28;19983;-79
2022/06/26 14:36:14;;;;;;;;;;;32.50;45.80;;;;;;4983808;28;19913;-77
2022/06/26 14:38:40;;;;;;;;;;;32.40;46.00;;;;;;4983326;28;20860;-79
2022/06/26 14:41:05;;;;;;;;;;;32.40;46.50;;;;;;4976846;28;19914;-79
2022/06/26 14:43:32;;;;;;;;;;;32.10;47.20;;;;;;4983230;28;20384;-80
2022/06/26 14:45:57;;;;;;;;;;;32.10;48.00;;;;;;4987339;28;19914;-80